Markesan, WI

11:05 AM CDT on August 22, 2014 (GMT -0500)
KWIBRAND2 | Change Station
CLOSE
Current Station
Personal Weather Station
Location: Brandon, WI
Elevation: 999 ft
Nearby Weather Stations

Elev 999 ft 43.73 °N, 88.78 °W | Updated 33 seconds ago

Mostly Cloudy
Mostly Cloudy
78.8 °F
Feels Like 79 °F
N
0.0
Wind Variable Wind from South
Gusts 0.0 mph

Today
High -- | Low -- °F
--% Chance of Precip.
Yesterday
High -- | Low -- °F
Precip. -- in
6:08 AM 7:48 PM
Waning Crescent, 8% visible
Pressure 29.97 in
Visibility 7.0 miles
Clouds Mostly Cloudy 900 ft
Heat Index 79 °F
Dew Point 49 °F
Humidity 35%
Rainfall 0.00 in
Snow Depth Not available.
UV 4 out of 12
Pollen 5.50 out of 12
Air Quality Not available.
Flu Activity Not available.
METAR KUNU 221555Z AUTO 22006KT 7SM BKN009 25/11 A2997 RMK AO2 T02470113

More Conditions Fewer Conditions

Pressure 29.97 in
Visibility 7.0 miles
Clouds Mostly Cloudy 900 ft
Heat Index 79 °F
Dew Point 49 °F
Humidity 35%
Rainfall 0.00 in
Snow Depth Not available.
UV 4 out of 12
Pollen 5.50 out of 12
Air Quality Not available.
Flu Activity Not available.
METAR KUNU 221555Z AUTO 22006KT 7SM BKN009 25/11 A2997 RMK AO2 T02470113

More Conditions Fewer Conditions

10-Day Weather Forecast

Almanac

Astronomy

Aug. 22, 2014 Rise Set
Actual Time 6:08 AM CDT 7:48 PM CDT
Civil Twilight 5:37 AM CDT 8:18 PM CDT
Nautical Twilight 5:00 AM CDT 8:55 PM CDT
Astronomical Twilight 4:21 AM CDT 9:35 PM CDT
Moon 3:28 AM CDT 5:58 PM CDT
Length of Visible Light 14h 40m
Length of Day
13h 40m
Tomorrow will be 2m 47s shorter.
Waning Crescent, 8% of the Moon is Illuminated
Today
Waning Crescent
Aug 25
New
Sep 2
First Quarter
Sep 8
Full
Sep 15
Last Quarter

Today's Extremes

State Highs State Lows

Community

WunderPhotos

Upload Photos

1,746,192 photos uploaded!

Nearby

Snow Depth

Station Depth Elevation
No new snow has been reported.

Earthquake Activity

City Distance Mag. Time & Date
No recent earthquake activity has been reported nearby.
Minimum magnitude displayed is 2.5.

Coastal Water Temperatures

Place Temperature
No Stations Reporting

Nearby Weather Stations